Boris Zaytsev — UCAI — position and weather

sailwx.info

Track history (hours):
 
Tides and Currents Weather Stations Pressure Air Temp Water Temp Dewpoint Dewpoint Depression Visibility Wind Speed Wind Dir Waves Ship Positions

Boris Zaytsev

Last reported at 2018-Jun-17 18:35 UTC. Time now 2018-Jun-22 11:02 UTC.
Position N 69°03' E 033°05'.

Length 41 m; draft 4.7 m.

Type: Fishing. MMSI: 273552400.

Date/timePositionNaut miles runAvg speedWind from/ knotsBaromVisibWave heightAir tempDewpointWater temp
2018-Jun-17 18:35N 69°03' E 033°05'1 7.4
2018-Jun-17 18:30N 69°03' E 033°04'3 5.0
2018-Jun-17 17:58N 69°00' E 033°01'0 0.0
2018-Jun-17 17:30N 69°00' E 033°01'0 0.0
2018-Jun-17 16:58N 69°00' E 033°01'0 0.0
2018-Jun-17 16:28N 69°00' E 033°01'0 0.0
2018-Jun-17 15:59N 69°00' E 033°01'0 0.0
2018-Jun-17 15:29N 69°00' E 033°01'0 0.0
2018-Jun-17 14:56N 69°00' E 033°01'0 0.0
2018-Jun-17 14:28N 69°00' E 033°01'0 0.0
2018-Jun-17 13:59N 69°00' E 033°01'0 0.0
2018-Jun-17 13:28N 69°00' E 033°01'0 0.0
2018-Jun-17 12:56N 69°00' E 033°01'0 0.0
2018-Jun-17 12:30N 69°00' E 033°01'0 0.0
2018-Jun-17 11:59N 69°00' E 033°01'0 0.0
2018-Jun-17 11:28N 69°00' E 033°01'0 0.0
2018-Jun-17 11:00N 69°00' E 033°01'0 0.0
2018-Jun-17 10:29N 69°00' E 033°01'0 0.0
2018-Jun-17 09:57N 69°00' E 033°01'0 0.0
2018-Jun-17 09:28N 69°00' E 033°01'0 0.0
2018-Jun-17 09:00N 69°00' E 033°01'0 0.0
2018-Jun-17 08:30N 69°00' E 033°01'0 0.0
2018-Jun-17 07:58N 69°00' E 033°01'0 0.0
2018-Jun-17 07:30N 69°00' E 033°01'0 0.0
2018-Jun-17 06:58N 69°00' E 033°01'0 0.0
2018-Jun-17 06:30N 69°00' E 033°01'0 0.0
2018-Jun-17 05:59N 69°00' E 033°01'0 0.0
2018-Jun-17 05:30N 69°00' E 033°01'1 2.3
2018-Jun-17 05:00N 69°01' E 033°03'  
2018-Jun-12 21:07N 69°03' E 033°05'1 6.8
2018-Jun-12 21:00N 69°03' E 033°04'2 4.9
2018-Jun-12 20:30N 69°00' E 033°01'0 0.0
2018-Jun-12 19:59N 69°00' E 033°01'0 0.0
2018-Jun-12 19:28N 69°00' E 033°01'0 0.0
2018-Jun-12 18:59N 69°00' E 033°01'0 0.0
2018-Jun-12 18:30N 69°00' E 033°01'0 0.0
2018-Jun-12 18:00N 69°00' E 033°01'0 0.0
2018-Jun-12 17:26N 69°00' E 033°01'0 0.0
2018-Jun-12 16:59N 69°00' E 033°01'0 0.0
2018-Jun-12 16:30N 69°00' E 033°01'0 0.0
2018-Jun-12 15:59N 69°00' E 033°01'0 0.0
2018-Jun-12 15:29N 69°00' E 033°01'0 0.0
2018-Jun-12 15:00N 69°00' E 033°01'0 0.0
2018-Jun-12 14:30N 69°00' E 033°01'0 0.0
2018-Jun-12 13:59N 69°00' E 033°01'0 0.0
2018-Jun-12 13:29N 69°00' E 033°01'0 0.0
2018-Jun-12 12:59N 69°00' E 033°01'0 0.0
2018-Jun-12 12:27N 69°00' E 033°01'0 0.0
2018-Jun-12 11:58N 69°00' E 033°01'0 0.0
2018-Jun-12 11:23N 69°00' E 033°01'0 0.0
2018-Jun-12 10:58N 69°00' E 033°01'0 0.0
2018-Jun-12 10:28N 69°00' E 033°01'0 0.0
2018-Jun-12 09:58N 69°00' E 033°01'0 0.0
2018-Jun-12 09:23N 69°00' E 033°01'0 0.0
2018-Jun-12 09:00N 69°00' E 033°01'0 0.0
2018-Jun-12 08:26N 69°00' E 033°01'0 0.0
2018-Jun-12 07:59N 69°00' E 033°01'0 0.0
2018-Jun-12 07:29N 69°00' E 033°01'0 0.0
2018-Jun-12 07:00N 69°00' E 033°01'0 0.0
2018-Jun-12 06:30N 69°00' E 033°01'0 0.0
2018-Jun-12 05:57N 69°00' E 033°01'0 0.0
2018-Jun-12 05:28N 69°00' E 033°01'0 0.0
2018-Jun-12 04:58N 69°00' E 033°01'0 0.0
2018-Jun-12 04:28N 69°00' E 033°01'0 0.0
2018-Jun-12 04:00N 69°00' E 033°01'0 0.0
2018-Jun-12 03:29N 69°00' E 033°01'0 0.0
2018-Jun-12 03:00N 69°00' E 033°01'0 0.0
2018-Jun-12 02:30N 69°00' E 033°01'0 0.0
2018-Jun-12 01:59N 69°00' E 033°01'0 0.0
2018-Jun-12 01:30N 69°00' E 033°01'0 0.0
2018-Jun-12 00:58N 69°00' E 033°01'0 0.0
2018-Jun-12 00:30N 69°00' E 033°01'0 0.0
2018-Jun-12 00:00N 69°00' E 033°01'0 0.0
2018-Jun-11 23:30N 69°00' E 033°01'2 3.1
2018-Jun-11 23:00N 69°02' E 033°03'  
Track history (hours):
 
Tides and Currents Weather Stations Pressure Air Temp Water Temp Dewpoint Dewpoint Depression Visibility Wind Speed Wind Dir Waves Ship Positions

Boris Zaytsev

Last reported at 2018-Jun-17 18:35 UTC. Time now 2018-Jun-22 11:02 UTC.
Position N 69°03' E 033°05'.

Length 41 m; draft 4.7 m.

Type: Fishing. MMSI: 273552400.

Date/timePositionNaut miles runAvg speedWind from/ knotsBaromVisibWave heightAir tempDewpointWater temp
2018-Jun-17 18:35N 69°03' E 033°05'1 7.4
2018-Jun-17 18:30N 69°03' E 033°04'3 5.0
2018-Jun-17 17:58N 69°00' E 033°01'0 0.0
2018-Jun-17 17:30N 69°00' E 033°01'0 0.0
2018-Jun-17 16:58N 69°00' E 033°01'0 0.0
2018-Jun-17 16:28N 69°00' E 033°01'0 0.0
2018-Jun-17 15:59N 69°00' E 033°01'0 0.0
2018-Jun-17 15:29N 69°00' E 033°01'0 0.0
2018-Jun-17 14:56N 69°00' E 033°01'0 0.0
2018-Jun-17 14:28N 69°00' E 033°01'0 0.0
2018-Jun-17 13:59N 69°00' E 033°01'0 0.0
2018-Jun-17 13:28N 69°00' E 033°01'0 0.0
2018-Jun-17 12:56N 69°00' E 033°01'0 0.0
2018-Jun-17 12:30N 69°00' E 033°01'0 0.0
2018-Jun-17 11:59N 69°00' E 033°01'0 0.0
2018-Jun-17 11:28N 69°00' E 033°01'0 0.0
2018-Jun-17 11:00N 69°00' E 033°01'0 0.0
2018-Jun-17 10:29N 69°00' E 033°01'0 0.0
2018-Jun-17 09:57N 69°00' E 033°01'0 0.0
2018-Jun-17 09:28N 69°00' E 033°01'0 0.0
2018-Jun-17 09:00N 69°00' E 033°01'0 0.0
2018-Jun-17 08:30N 69°00' E 033°01'0 0.0
2018-Jun-17 07:58N 69°00' E 033°01'0 0.0
2018-Jun-17 07:30N 69°00' E 033°01'0 0.0
2018-Jun-17 06:58N 69°00' E 033°01'0 0.0
2018-Jun-17 06:30N 69°00' E 033°01'0 0.0
2018-Jun-17 05:59N 69°00' E 033°01'0 0.0
2018-Jun-17 05:30N 69°00' E 033°01'1 2.3
2018-Jun-17 05:00N 69°01' E 033°03'  
2018-Jun-12 21:07N 69°03' E 033°05'1 6.8
2018-Jun-12 21:00N 69°03' E 033°04'2 4.9
2018-Jun-12 20:30N 69°00' E 033°01'0 0.0
2018-Jun-12 19:59N 69°00' E 033°01'0 0.0
2018-Jun-12 19:28N 69°00' E 033°01'0 0.0
2018-Jun-12 18:59N 69°00' E 033°01'0 0.0
2018-Jun-12 18:30N 69°00' E 033°01'0 0.0
2018-Jun-12 18:00N 69°00' E 033°01'0 0.0
2018-Jun-12 17:26N 69°00' E 033°01'0 0.0
2018-Jun-12 16:59N 69°00' E 033°01'0 0.0
2018-Jun-12 16:30N 69°00' E 033°01'0 0.0
2018-Jun-12 15:59N 69°00' E 033°01'0 0.0
2018-Jun-12 15:29N 69°00' E 033°01'0 0.0
2018-Jun-12 15:00N 69°00' E 033°01'0 0.0
2018-Jun-12 14:30N 69°00' E 033°01'0 0.0
2018-Jun-12 13:59N 69°00' E 033°01'0 0.0
2018-Jun-12 13:29N 69°00' E 033°01'0 0.0
2018-Jun-12 12:59N 69°00' E 033°01'0 0.0
2018-Jun-12 12:27N 69°00' E 033°01'0 0.0
2018-Jun-12 11:58N 69°00' E 033°01'0 0.0
2018-Jun-12 11:23N 69°00' E 033°01'0 0.0
2018-Jun-12 10:58N 69°00' E 033°01'0 0.0
2018-Jun-12 10:28N 69°00' E 033°01'0 0.0
2018-Jun-12 09:58N 69°00' E 033°01'0 0.0
2018-Jun-12 09:23N 69°00' E 033°01'0 0.0
2018-Jun-12 09:00N 69°00' E 033°01'0 0.0
2018-Jun-12 08:26N 69°00' E 033°01'0 0.0
2018-Jun-12 07:59N 69°00' E 033°01'0 0.0
2018-Jun-12 07:29N 69°00' E 033°01'0 0.0
2018-Jun-12 07:00N 69°00' E 033°01'0 0.0
2018-Jun-12 06:30N 69°00' E 033°01'0 0.0
2018-Jun-12 05:57N 69°00' E 033°01'0 0.0
2018-Jun-12 05:28N 69°00' E 033°01'0 0.0
2018-Jun-12 04:58N 69°00' E 033°01'0 0.0
2018-Jun-12 04:28N 69°00' E 033°01'0 0.0
2018-Jun-12 04:00N 69°00' E 033°01'0 0.0
2018-Jun-12 03:29N 69°00' E 033°01'0 0.0
2018-Jun-12 03:00N 69°00' E 033°01'0 0.0
2018-Jun-12 02:30N 69°00' E 033°01'0 0.0
2018-Jun-12 01:59N 69°00' E 033°01'0 0.0
2018-Jun-12 01:30N 69°00' E 033°01'0 0.0
2018-Jun-12 00:58N 69°00' E 033°01'0 0.0
2018-Jun-12 00:30N 69°00' E 033°01'0 0.0
2018-Jun-12 00:00N 69°00' E 033°01'0 0.0
2018-Jun-11 23:30N 69°00' E 033°01'2 3.1
2018-Jun-11 23:00N 69°02' E 033°03'  

Dump ship's entire track history